sensor_id;sensor_type;location;lat;lon;timestamp;P1;durP1;ratioP1;P2;durP2;ratioP2
70455;SDS011;57916;51.996;5.180;2024-03-25T00:01:34;25.50;;;3.95;;
70455;SDS011;57916;51.996;5.180;2024-03-25T00:04:00;34.08;;;3.72;;
70455;SDS011;57916;51.996;5.180;2024-03-25T00:06:26;26.23;;;3.38;;
70455;SDS011;57916;51.996;5.180;2024-03-25T00:08:52;27.52;;;3.83;;
70455;SDS011;57916;51.996;5.180;2024-03-25T00:11:18;29.35;;;3.50;;
70455;SDS011;57916;51.996;5.180;2024-03-25T00:13:45;27.10;;;3.38;;
70455;SDS011;57916;51.996;5.180;2024-03-25T00:16:11;31.17;;;3.65;;
70455;SDS011;57916;51.996;5.180;2024-03-25T00:18:37;25.17;;;3.35;;
70455;SDS011;57916;51.996;5.180;2024-03-25T00:21:03;33.35;;;3.08;;
70455;SDS011;57916;51.996;5.180;2024-03-25T00:23:30;27.70;;;3.60;;
70455;SDS011;57916;51.996;5.180;2024-03-25T00:25:56;27.60;;;3.28;;
70455;SDS011;57916;51.996;5.180;2024-03-25T00:28:22;28.42;;;3.53;;
70455;SDS011;57916;51.996;5.180;2024-03-25T00:30:48;31.10;;;3.38;;
70455;SDS011;57916;51.996;5.180;2024-03-25T00:33:14;22.23;;;3.00;;
70455;SDS011;57916;51.996;5.180;2024-03-25T00:35:42;24.30;;;3.05;;
70455;SDS011;57916;51.996;5.180;2024-03-25T00:38:11;34.95;;;3.38;;
70455;SDS011;57916;51.996;5.180;2024-03-25T00:40:37;24.23;;;3.40;;
70455;SDS011;57916;51.996;5.180;2024-03-25T00:43:03;23.45;;;3.72;;
70455;SDS011;57916;51.996;5.180;2024-03-25T00:45:29;27.93;;;3.17;;
70455;SDS011;57916;51.996;5.180;2024-03-25T00:47:58;25.25;;;3.42;;
70455;SDS011;57916;51.996;5.180;2024-03-25T00:50:25;25.95;;;3.08;;
70455;SDS011;57916;51.996;5.180;2024-03-25T00:52:51;22.45;;;3.30;;
70455;SDS011;57916;51.996;5.180;2024-03-25T00:55:17;19.50;;;3.55;;
70455;SDS011;57916;51.996;5.180;2024-03-25T00:57:44;21.92;;;3.15;;
70455;SDS011;57916;51.996;5.180;2024-03-25T01:00:10;23.88;;;3.40;;
70455;SDS011;57916;51.996;5.180;2024-03-25T01:02:37;28.08;;;3.60;;
70455;SDS011;57916;51.996;5.180;2024-03-25T01:05:04;33.05;;;3.70;;
70455;SDS011;57916;51.996;5.180;2024-03-25T01:07:30;17.90;;;3.03;;
70455;SDS011;57916;51.996;5.180;2024-03-25T01:09:57;26.88;;;3.10;;
70455;SDS011;57916;51.996;5.180;2024-03-25T01:12:24;22.20;;;3.10;;
70455;SDS011;57916;51.996;5.180;2024-03-25T01:14:51;23.23;;;2.90;;
70455;SDS011;57916;51.996;5.180;2024-03-25T01:17:17;26.17;;;3.10;;
70455;SDS011;57916;51.996;5.180;2024-03-25T01:19:44;28.23;;;3.53;;
70455;SDS011;57916;51.996;5.180;2024-03-25T01:22:10;25.95;;;3.30;;
70455;SDS011;57916;51.996;5.180;2024-03-25T01:24:36;28.33;;;3.50;;
70455;SDS011;57916;51.996;5.180;2024-03-25T01:27:02;26.90;;;3.67;;
70455;SDS011;57916;51.996;5.180;2024-03-25T01:29:28;37.43;;;3.60;;
70455;SDS011;57916;51.996;5.180;2024-03-25T01:31:54;26.98;;;3.65;;
70455;SDS011;57916;51.996;5.180;2024-03-25T01:34:20;25.83;;;3.50;;
70455;SDS011;57916;51.996;5.180;2024-03-25T01:36:46;14.60;;;2.95;;
70455;SDS011;57916;51.996;5.180;2024-03-25T01:39:12;26.45;;;3.28;;
70455;SDS011;57916;51.996;5.180;2024-03-25T01:41:39;21.27;;;3.22;;
70455;SDS011;57916;51.996;5.180;2024-03-25T01:44:05;21.92;;;3.00;;
70455;SDS011;57916;51.996;5.180;2024-03-25T01:46:31;23.40;;;3.13;;
70455;SDS011;57916;51.996;5.180;2024-03-25T01:48:57;22.33;;;3.00;;
70455;SDS011;57916;51.996;5.180;2024-03-25T01:51:24;19.80;;;2.90;;
70455;SDS011;57916;51.996;5.180;2024-03-25T01:53:51;18.35;;;3.13;;
70455;SDS011;57916;51.996;5.180;2024-03-25T01:56:18;26.70;;;3.17;;
70455;SDS011;57916;51.996;5.180;2024-03-25T01:58:45;20.60;;;3.08;;
70455;SDS011;57916;51.996;5.180;2024-03-25T02:01:12;25.23;;;3.35;;
70455;SDS011;57916;51.996;5.180;2024-03-25T02:03:44;25.13;;;3.40;;
70455;SDS011;57916;51.996;5.180;2024-03-25T02:06:15;24.93;;;3.53;;
70455;SDS011;57916;51.996;5.180;2024-03-25T02:08:43;25.58;;;3.28;;
70455;SDS011;57916;51.996;5.180;2024-03-25T02:11:10;27.10;;;4.18;;
70455;SDS011;57916;51.996;5.180;2024-03-25T02:13:37;25.70;;;3.70;;
70455;SDS011;57916;51.996;5.180;2024-03-25T02:16:04;23.55;;;3.10;;
70455;SDS011;57916;51.996;5.180;2024-03-25T02:18:31;25.95;;;3.30;;
70455;SDS011;57916;51.996;5.180;2024-03-25T02:20:57;24.73;;;3.42;;
70455;SDS011;57916;51.996;5.180;2024-03-25T02:23:24;23.95;;;2.90;;
70455;SDS011;57916;51.996;5.180;2024-03-25T02:25:51;24.27;;;3.47;;
70455;SDS011;57916;51.996;5.180;2024-03-25T02:28:20;24.63;;;3.17;;
70455;SDS011;57916;51.996;5.180;2024-03-25T02:30:47;30.35;;;4.25;;
70455;SDS011;57916;51.996;5.180;2024-03-25T02:33:13;21.90;;;2.90;;
70455;SDS011;57916;51.996;5.180;2024-03-25T02:35:40;27.55;;;3.40;;
70455;SDS011;57916;51.996;5.180;2024-03-25T02:38:07;21.13;;;3.72;;
70455;SDS011;57916;51.996;5.180;2024-03-25T02:40:34;24.13;;;3.40;;
70455;SDS011;57916;51.996;5.180;2024-03-25T02:43:00;23.85;;;3.10;;
70455;SDS011;57916;51.996;5.180;2024-03-25T02:45:27;24.30;;;3.40;;
70455;SDS011;57916;51.996;5.180;2024-03-25T02:47:54;29.43;;;3.50;;
70455;SDS011;57916;51.996;5.180;2024-03-25T02:50:20;21.52;;;3.45;;
70455;SDS011;57916;51.996;5.180;2024-03-25T02:52:46;28.95;;;3.70;;
70455;SDS011;57916;51.996;5.180;2024-03-25T02:55:12;19.47;;;3.30;;
70455;SDS011;57916;51.996;5.180;2024-03-25T02:57:38;27.20;;;3.33;;
70455;SDS011;57916;51.996;5.180;2024-03-25T03:00:05;24.90;;;3.17;;
70455;SDS011;57916;51.996;5.180;2024-03-25T03:02:31;22.33;;;3.42;;
70455;SDS011;57916;51.996;5.180;2024-03-25T03:04:57;25.77;;;3.33;;
70455;SDS011;57916;51.996;5.180;2024-03-25T03:07:24;23.52;;;3.28;;
70455;SDS011;57916;51.996;5.180;2024-03-25T03:09:50;21.40;;;2.88;;
70455;SDS011;57916;51.996;5.180;2024-03-25T03:12:16;26.65;;;3.58;;
70455;SDS011;57916;51.996;5.180;2024-03-25T03:14:42;20.83;;;3.10;;
70455;SDS011;57916;51.996;5.180;2024-03-25T03:17:08;19.83;;;3.10;;
70455;SDS011;57916;51.996;5.180;2024-03-25T03:19:34;24.27;;;3.35;;
70455;SDS011;57916;51.996;5.180;2024-03-25T03:22:01;18.80;;;3.22;;
70455;SDS011;57916;51.996;5.180;2024-03-25T03:24:28;19.63;;;3.00;;
70455;SDS011;57916;51.996;5.180;2024-03-25T03:26:54;27.45;;;3.42;;
70455;SDS011;57916;51.996;5.180;2024-03-25T03:29:20;14.57;;;3.08;;
70455;SDS011;57916;51.996;5.180;2024-03-25T03:31:46;16.85;;;2.97;;
70455;SDS011;57916;51.996;5.180;2024-03-25T03:34:12;19.35;;;2.80;;
70455;SDS011;57916;51.996;5.180;2024-03-25T03:36:38;24.23;;;2.80;;
70455;SDS011;57916;51.996;5.180;2024-03-25T03:39:05;19.45;;;2.88;;
70455;SDS011;57916;51.996;5.180;2024-03-25T03:41:34;16.88;;;2.78;;
70455;SDS011;57916;51.996;5.180;2024-03-25T03:44:01;17.50;;;2.70;;
70455;SDS011;57916;51.996;5.180;2024-03-25T03:46:27;18.10;;;3.03;;
70455;SDS011;57916;51.996;5.180;2024-03-25T03:48:53;28.02;;;3.60;;
70455;SDS011;57916;51.996;5.180;2024-03-25T03:51:19;20.05;;;3.05;;
70455;SDS011;57916;51.996;5.180;2024-03-25T03:53:45;25.88;;;3.17;;
70455;SDS011;57916;51.996;5.180;2024-03-25T03:56:11;17.60;;;3.50;;
70455;SDS011;57916;51.996;5.180;2024-03-25T03:58:37;22.95;;;3.53;;
70455;SDS011;57916;51.996;5.180;2024-03-25T04:01:03;17.83;;;2.92;;
70455;SDS011;57916;51.996;5.180;2024-03-25T04:03:30;17.43;;;3.13;;
70455;SDS011;57916;51.996;5.180;2024-03-25T04:05:56;23.30;;;4.18;;
70455;SDS011;57916;51.996;5.180;2024-03-25T04:08:22;21.40;;;3.83;;
70455;SDS011;57916;51.996;5.180;2024-03-25T04:10:48;19.00;;;3.58;;
70455;SDS011;57916;51.996;5.180;2024-03-25T04:13:14;21.43;;;4.13;;
70455;SDS011;57916;51.996;5.180;2024-03-25T04:15:41;20.67;;;3.90;;
70455;SDS011;57916;51.996;5.180;2024-03-25T04:18:08;21.50;;;3.40;;
70455;SDS011;57916;51.996;5.180;2024-03-25T04:20:38;21.27;;;4.03;;
70455;SDS011;57916;51.996;5.180;2024-03-25T04:23:05;18.05;;;4.10;;
70455;SDS011;57916;51.996;5.180;2024-03-25T04:25:32;18.92;;;4.00;;
70455;SDS011;57916;51.996;5.180;2024-03-25T04:27:59;14.80;;;3.67;;
70455;SDS011;57916;51.996;5.180;2024-03-25T04:30:25;18.10;;;4.03;;
70455;SDS011;57916;51.996;5.180;2024-03-25T04:32:51;20.30;;;4.35;;
70455;SDS011;57916;51.996;5.180;2024-03-25T04:35:18;17.38;;;4.10;;
70455;SDS011;57916;51.996;5.180;2024-03-25T04:37:44;25.98;;;4.65;;
70455;SDS011;57916;51.996;5.180;2024-03-25T04:40:10;20.88;;;4.30;;
70455;SDS011;57916;51.996;5.180;2024-03-25T04:42:40;16.95;;;3.60;;
70455;SDS011;57916;51.996;5.180;2024-03-25T04:45:06;18.05;;;3.40;;
70455;SDS011;57916;51.996;5.180;2024-03-25T04:47:33;24.30;;;4.23;;
70455;SDS011;57916;51.996;5.180;2024-03-25T04:49:59;26.80;;;3.80;;
70455;SDS011;57916;51.996;5.180;2024-03-25T04:52:25;17.35;;;3.90;;
70455;SDS011;57916;51.996;5.180;2024-03-25T04:54:51;18.05;;;4.05;;
70455;SDS011;57916;51.996;5.180;2024-03-25T04:57:17;23.83;;;3.92;;
70455;SDS011;57916;51.996;5.180;2024-03-25T04:59:44;17.02;;;3.33;;
70455;SDS011;57916;51.996;5.180;2024-03-25T05:02:10;18.57;;;3.63;;
70455;SDS011;57916;51.996;5.180;2024-03-25T05:04:36;15.32;;;3.47;;
70455;SDS011;57916;51.996;5.180;2024-03-25T05:07:02;18.75;;;4.03;;
70455;SDS011;57916;51.996;5.180;2024-03-25T05:09:28;24.92;;;4.00;;
70455;SDS011;57916;51.996;5.180;2024-03-25T05:11:54;22.23;;;3.75;;
70455;SDS011;57916;51.996;5.180;2024-03-25T05:14:20;17.83;;;3.20;;
70455;SDS011;57916;51.996;5.180;2024-03-25T05:16:46;21.20;;;3.67;;
70455;SDS011;57916;51.996;5.180;2024-03-25T05:19:14;23.20;;;3.55;;
70455;SDS011;57916;51.996;5.180;2024-03-25T05:21:40;12.95;;;3.33;;
70455;SDS011;57916;51.996;5.180;2024-03-25T05:24:06;14.98;;;3.28;;
70455;SDS011;57916;51.996;5.180;2024-03-25T05:26:32;16.40;;;3.30;;
70455;SDS011;57916;51.996;5.180;2024-03-25T05:28:58;14.32;;;2.90;;
70455;SDS011;57916;51.996;5.180;2024-03-25T05:31:25;21.37;;;3.53;;
70455;SDS011;57916;51.996;5.180;2024-03-25T05:33:51;21.15;;;3.33;;
70455;SDS011;57916;51.996;5.180;2024-03-25T05:36:17;21.85;;;3.13;;
70455;SDS011;57916;51.996;5.180;2024-03-25T05:38:43;19.83;;;3.33;;
70455;SDS011;57916;51.996;5.180;2024-03-25T05:41:09;27.85;;;4.05;;
70455;SDS011;57916;51.996;5.180;2024-03-25T05:43:36;19.02;;;3.28;;
70455;SDS011;57916;51.996;5.180;2024-03-25T05:46:02;15.43;;;3.20;;
70455;SDS011;57916;51.996;5.180;2024-03-25T05:48:29;26.40;;;4.15;;
70455;SDS011;57916;51.996;5.180;2024-03-25T05:51:05;17.50;;;3.38;;
70455;SDS011;57916;51.996;5.180;2024-03-25T05:53:34;21.70;;;3.33;;
70455;SDS011;57916;51.996;5.180;2024-03-25T05:56:01;19.77;;;3.35;;
70455;SDS011;57916;51.996;5.180;2024-03-25T05:58:27;23.92;;;3.78;;
70455;SDS011;57916;51.996;5.180;2024-03-25T06:00:53;18.23;;;3.13;;
70455;SDS011;57916;51.996;5.180;2024-03-25T06:03:20;20.15;;;3.08;;
70455;SDS011;57916;51.996;5.180;2024-03-25T06:05:46;21.58;;;3.63;;
70455;SDS011;57916;51.996;5.180;2024-03-25T06:08:13;19.50;;;3.70;;
70455;SDS011;57916;51.996;5.180;2024-03-25T06:10:51;21.08;;;3.35;;
70455;SDS011;57916;51.996;5.180;2024-03-25T06:13:17;16.38;;;3.40;;
70455;SDS011;57916;51.996;5.180;2024-03-25T06:15:44;16.02;;;3.58;;
70455;SDS011;57916;51.996;5.180;2024-03-25T06:18:11;18.90;;;3.50;;
70455;SDS011;57916;51.996;5.180;2024-03-25T06:20:37;20.33;;;3.03;;
70455;SDS011;57916;51.996;5.180;2024-03-25T06:23:04;15.57;;;3.05;;
70455;SDS011;57916;51.996;5.180;2024-03-25T06:25:30;14.63;;;3.13;;
70455;SDS011;57916;51.996;5.180;2024-03-25T06:27:56;13.57;;;3.10;;
70455;SDS011;57916;51.996;5.180;2024-03-25T06:30:22;15.00;;;3.00;;
70455;SDS011;57916;51.996;5.180;2024-03-25T06:33:07;12.43;;;3.00;;
70455;SDS011;57916;51.996;5.180;2024-03-25T06:35:51;17.05;;;3.17;;
70455;SDS011;57916;51.996;5.180;2024-03-25T06:38:18;17.08;;;2.75;;
70455;SDS011;57916;51.996;5.180;2024-03-25T06:40:45;16.80;;;3.33;;
70455;SDS011;57916;51.996;5.180;2024-03-25T06:43:11;13.13;;;3.15;;
70455;SDS011;57916;51.996;5.180;2024-03-25T06:45:37;12.63;;;2.95;;
70455;SDS011;57916;51.996;5.180;2024-03-25T06:48:04;17.15;;;3.13;;
70455;SDS011;57916;51.996;5.180;2024-03-25T06:50:31;12.75;;;2.88;;
70455;SDS011;57916;51.996;5.180;2024-03-25T06:52:57;15.95;;;3.30;;
70455;SDS011;57916;51.996;5.180;2024-03-25T06:55:23;18.92;;;2.70;;
70455;SDS011;57916;51.996;5.180;2024-03-25T06:57:53;16.88;;;2.90;;
70455;SDS011;57916;51.996;5.180;2024-03-25T07:00:19;11.02;;;2.85;;
70455;SDS011;57916;51.996;5.180;2024-03-25T07:02:50;15.23;;;3.30;;
70455;SDS011;57916;51.996;5.180;2024-03-25T07:05:16;12.38;;;2.88;;
70455;SDS011;57916;51.996;5.180;2024-03-25T07:07:42;14.45;;;3.33;;
70455;SDS011;57916;51.996;5.180;2024-03-25T07:10:08;12.82;;;3.13;;
70455;SDS011;57916;51.996;5.180;2024-03-25T07:12:34;11.70;;;2.95;;
70455;SDS011;57916;51.996;5.180;2024-03-25T07:15:00;19.85;;;3.30;;
70455;SDS011;57916;51.996;5.180;2024-03-25T07:17:26;18.30;;;3.58;;
70455;SDS011;57916;51.996;5.180;2024-03-25T07:19:52;15.32;;;3.55;;
70455;SDS011;57916;51.996;5.180;2024-03-25T07:22:18;15.90;;;3.80;;
70455;SDS011;57916;51.996;5.180;2024-03-25T07:24:44;21.25;;;3.85;;
70455;SDS011;57916;51.996;5.180;2024-03-25T07:27:10;16.95;;;3.88;;
70455;SDS011;57916;51.996;5.180;2024-03-25T07:29:36;17.50;;;4.70;;
70455;SDS011;57916;51.996;5.180;2024-03-25T07:32:03;17.98;;;4.13;;
70455;SDS011;57916;51.996;5.180;2024-03-25T07:34:29;15.90;;;4.27;;
70455;SDS011;57916;51.996;5.180;2024-03-25T07:36:56;14.45;;;4.05;;
70455;SDS011;57916;51.996;5.180;2024-03-25T07:39:22;16.60;;;4.28;;
70455;SDS011;57916;51.996;5.180;2024-03-25T07:41:52;22.27;;;5.32;;
70455;SDS011;57916;51.996;5.180;2024-03-25T07:44:19;18.10;;;4.72;;
70455;SDS011;57916;51.996;5.180;2024-03-25T07:46:45;19.35;;;4.50;;
70455;SDS011;57916;51.996;5.180;2024-03-25T07:49:11;16.63;;;4.43;;
70455;SDS011;57916;51.996;5.180;2024-03-25T07:51:37;18.73;;;4.50;;
70455;SDS011;57916;51.996;5.180;2024-03-25T07:54:05;20.27;;;4.57;;
70455;SDS011;57916;51.996;5.180;2024-03-25T07:56:31;20.52;;;4.97;;
70455;SDS011;57916;51.996;5.180;2024-03-25T07:59:02;17.48;;;4.63;;
70455;SDS011;57916;51.996;5.180;2024-03-25T08:01:29;16.08;;;4.53;;
70455;SDS011;57916;51.996;5.180;2024-03-25T08:03:55;22.55;;;4.85;;
70455;SDS011;57916;51.996;5.180;2024-03-25T08:06:21;14.65;;;4.53;;
70455;SDS011;57916;51.996;5.180;2024-03-25T08:08:47;16.58;;;4.53;;
70455;SDS011;57916;51.996;5.180;2024-03-25T08:11:14;13.45;;;3.95;;
70455;SDS011;57916;51.996;5.180;2024-03-25T08:13:40;21.00;;;4.75;;
70455;SDS011;57916;51.996;5.180;2024-03-25T08:16:07;14.82;;;3.70;;
70455;SDS011;57916;51.996;5.180;2024-03-25T08:18:33;18.25;;;3.70;;
70455;SDS011;57916;51.996;5.180;2024-03-25T08:20:59;18.27;;;4.57;;
70455;SDS011;57916;51.996;5.180;2024-03-25T08:23:25;17.95;;;4.32;;
70455;SDS011;57916;51.996;5.180;2024-03-25T08:25:51;21.10;;;4.85;;
70455;SDS011;57916;51.996;5.180;2024-03-25T08:28:17;21.98;;;5.05;;
70455;SDS011;57916;51.996;5.180;2024-03-25T08:30:43;20.15;;;4.97;;
70455;SDS011;57916;51.996;5.180;2024-03-25T08:33:09;18.98;;;4.72;;
70455;SDS011;57916;51.996;5.180;2024-03-25T08:35:35;22.20;;;5.45;;
70455;SDS011;57916;51.996;5.180;2024-03-25T08:38:03;21.33;;;5.20;;
70455;SDS011;57916;51.996;5.180;2024-03-25T08:40:29;18.42;;;5.80;;
70455;SDS011;57916;51.996;5.180;2024-03-25T08:42:55;19.45;;;5.57;;
70455;SDS011;57916;51.996;5.180;2024-03-25T08:45:21;16.60;;;5.00;;
70455;SDS011;57916;51.996;5.180;2024-03-25T08:47:47;20.58;;;5.38;;
70455;SDS011;57916;51.996;5.180;2024-03-25T08:50:13;23.88;;;5.35;;
70455;SDS011;57916;51.996;5.180;2024-03-25T08:52:39;26.63;;;5.82;;
70455;SDS011;57916;51.996;5.180;2024-03-25T08:55:06;19.27;;;5.65;;
70455;SDS011;57916;51.996;5.180;2024-03-25T08:57:32;22.45;;;6.15;;
70455;SDS011;57916;51.996;5.180;2024-03-25T08:59:58;24.65;;;5.78;;
70455;SDS011;57916;51.996;5.180;2024-03-25T09:02:24;17.25;;;4.85;;
70455;SDS011;57916;51.996;5.180;2024-03-25T09:04:50;23.17;;;4.82;;
70455;SDS011;57916;51.996;5.180;2024-03-25T09:07:18;15.77;;;5.10;;
70455;SDS011;57916;51.996;5.180;2024-03-25T09:09:44;15.05;;;4.72;;
70455;SDS011;57916;51.996;5.180;2024-03-25T09:12:29;19.88;;;5.70;;
70455;SDS011;57916;51.996;5.180;2024-03-25T09:14:55;23.25;;;5.53;;
70455;SDS011;57916;51.996;5.180;2024-03-25T09:17:24;25.27;;;5.45;;
70455;SDS011;57916;51.996;5.180;2024-03-25T09:19:50;19.48;;;5.20;;
70455;SDS011;57916;51.996;5.180;2024-03-25T09:22:16;20.13;;;5.32;;
70455;SDS011;57916;51.996;5.180;2024-03-25T09:24:43;24.10;;;5.40;;
70455;SDS011;57916;51.996;5.180;2024-03-25T09:27:10;14.98;;;5.00;;
70455;SDS011;57916;51.996;5.180;2024-03-25T09:29:36;18.60;;;5.32;;
70455;SDS011;57916;51.996;5.180;2024-03-25T09:32:04;19.70;;;5.80;;
70455;SDS011;57916;51.996;5.180;2024-03-25T09:34:31;17.58;;;4.90;;
70455;SDS011;57916;51.996;5.180;2024-03-25T09:36:57;14.55;;;4.55;;
70455;SDS011;57916;51.996;5.180;2024-03-25T09:39:23;14.93;;;4.75;;
70455;SDS011;57916;51.996;5.180;2024-03-25T09:41:49;15.60;;;4.57;;
70455;SDS011;57916;51.996;5.180;2024-03-25T09:44:18;18.40;;;4.32;;
70455;SDS011;57916;51.996;5.180;2024-03-25T09:46:48;18.20;;;4.63;;
70455;SDS011;57916;51.996;5.180;2024-03-25T09:49:14;11.95;;;4.00;;
70455;SDS011;57916;51.996;5.180;2024-03-25T09:51:41;11.50;;;4.20;;
70455;SDS011;57916;51.996;5.180;2024-03-25T09:54:08;14.27;;;4.72;;
70455;SDS011;57916;51.996;5.180;2024-03-25T09:56:35;14.15;;;4.82;;
70455;SDS011;57916;51.996;5.180;2024-03-25T09:59:02;12.35;;;4.80;;
70455;SDS011;57916;51.996;5.180;2024-03-25T10:01:29;12.05;;;5.03;;
70455;SDS011;57916;51.996;5.180;2024-03-25T10:03:55;10.85;;;4.63;;
70455;SDS011;57916;51.996;5.180;2024-03-25T10:06:21;14.88;;;5.13;;
70455;SDS011;57916;51.996;5.180;2024-03-25T10:08:47;13.10;;;5.50;;
70455;SDS011;57916;51.996;5.180;2024-03-25T10:11:15;12.25;;;4.88;;
70455;SDS011;57916;51.996;5.180;2024-03-25T10:13:41;13.00;;;4.88;;
70455;SDS011;57916;51.996;5.180;2024-03-25T10:16:07;8.97;;;4.07;;
70455;SDS011;57916;51.996;5.180;2024-03-25T10:18:33;9.18;;;4.55;;
70455;SDS011;57916;51.996;5.180;2024-03-25T10:20:59;12.85;;;4.82;;
70455;SDS011;57916;51.996;5.180;2024-03-25T10:23:25;16.10;;;5.57;;
70455;SDS011;57916;51.996;5.180;2024-03-25T10:25:52;10.43;;;4.70;;
70455;SDS011;57916;51.996;5.180;2024-03-25T10:28:18;10.65;;;4.45;;
70455;SDS011;57916;51.996;5.180;2024-03-25T10:30:44;11.07;;;4.25;;
70455;SDS011;57916;51.996;5.180;2024-03-25T10:33:11;10.05;;;4.40;;
70455;SDS011;57916;51.996;5.180;2024-03-25T10:35:37;13.05;;;4.47;;
70455;SDS011;57916;51.996;5.180;2024-03-25T10:38:07;12.18;;;4.93;;
70455;SDS011;57916;51.996;5.180;2024-03-25T10:40:39;13.33;;;4.30;;
70455;SDS011;57916;51.996;5.180;2024-03-25T10:43:09;10.98;;;4.18;;
70455;SDS011;57916;51.996;5.180;2024-03-25T10:45:45;11.05;;;3.83;;
70455;SDS011;57916;51.996;5.180;2024-03-25T10:48:26;9.77;;;4.70;;
70455;SDS011;57916;51.996;5.180;2024-03-25T10:50:55;10.90;;;4.68;;
70455;SDS011;57916;51.996;5.180;2024-03-25T10:53:22;10.90;;;4.25;;
70455;SDS011;57916;51.996;5.180;2024-03-25T10:55:52;11.30;;;4.70;;
70455;SDS011;57916;51.996;5.180;2024-03-25T10:58:19;9.90;;;4.85;;
70455;SDS011;57916;51.996;5.180;2024-03-25T11:00:51;8.47;;;4.13;;
70455;SDS011;57916;51.996;5.180;2024-03-25T11:03:22;10.60;;;4.18;;
70455;SDS011;57916;51.996;5.180;2024-03-25T11:05:50;9.70;;;4.00;;
70455;SDS011;57916;51.996;5.180;2024-03-25T11:08:17;8.18;;;4.05;;
70455;SDS011;57916;51.996;5.180;2024-03-25T11:10:43;10.25;;;3.80;;
70455;SDS011;57916;51.996;5.180;2024-03-25T11:13:11;8.30;;;4.10;;
70455;SDS011;57916;51.996;5.180;2024-03-25T11:15:40;8.00;;;4.03;;
70455;SDS011;57916;51.996;5.180;2024-03-25T11:18:14;10.10;;;4.03;;
70455;SDS011;57916;51.996;5.180;2024-03-25T11:20:41;9.15;;;4.13;;
70455;SDS011;57916;51.996;5.180;2024-03-25T11:23:12;10.05;;;3.70;;
70455;SDS011;57916;51.996;5.180;2024-03-25T11:25:39;9.73;;;4.20;;
70455;SDS011;57916;51.996;5.180;2024-03-25T11:28:06;10.00;;;4.00;;
70455;SDS011;57916;51.996;5.180;2024-03-25T11:30:35;13.88;;;4.53;;
70455;SDS011;57916;51.996;5.180;2024-03-25T11:33:02;10.07;;;4.35;;
70455;SDS011;57916;51.996;5.180;2024-03-25T11:35:36;7.90;;;3.85;;
70455;SDS011;57916;51.996;5.180;2024-03-25T11:38:03;7.70;;;3.70;;
70455;SDS011;57916;51.996;5.180;2024-03-25T11:40:29;10.95;;;4.28;;
70455;SDS011;57916;51.996;5.180;2024-03-25T11:42:56;6.90;;;3.50;;
70455;SDS011;57916;51.996;5.180;2024-03-25T11:45:23;10.73;;;4.40;;
70455;SDS011;57916;51.996;5.180;2024-03-25T11:47:50;9.98;;;4.15;;
70455;SDS011;57916;51.996;5.180;2024-03-25T11:50:17;8.52;;;3.95;;
70455;SDS011;57916;51.996;5.180;2024-03-25T11:52:44;9.73;;;4.40;;
70455;SDS011;57916;51.996;5.180;2024-03-25T11:55:10;7.03;;;3.63;;
70455;SDS011;57916;51.996;5.180;2024-03-25T11:57:41;5.78;;;3.42;;
70455;SDS011;57916;51.996;5.180;2024-03-25T12:00:08;7.05;;;3.30;;
70455;SDS011;57916;51.996;5.180;2024-03-25T12:02:43;7.60;;;3.90;;
70455;SDS011;57916;51.996;5.180;2024-03-25T12:05:12;8.45;;;3.80;;
70455;SDS011;57916;51.996;5.180;2024-03-25T12:07:38;9.13;;;4.38;;
70455;SDS011;57916;51.996;5.180;2024-03-25T12:10:05;8.13;;;4.22;;
70455;SDS011;57916;51.996;5.180;2024-03-25T12:12:49;9.95;;;4.22;;
70455;SDS011;57916;51.996;5.180;2024-03-25T12:15:22;7.43;;;3.80;;
70455;SDS011;57916;51.996;5.180;2024-03-25T12:17:48;8.90;;;3.88;;
70455;SDS011;57916;51.996;5.180;2024-03-25T12:20:16;8.13;;;3.90;;
70455;SDS011;57916;51.996;5.180;2024-03-25T12:22:43;10.15;;;4.20;;
70455;SDS011;57916;51.996;5.180;2024-03-25T12:25:10;7.70;;;3.63;;
70455;SDS011;57916;51.996;5.180;2024-03-25T12:27:36;6.05;;;3.40;;
70455;SDS011;57916;51.996;5.180;2024-03-25T12:30:10;7.95;;;3.40;;
70455;SDS011;57916;51.996;5.180;2024-03-25T12:32:37;7.50;;;3.40;;
70455;SDS011;57916;51.996;5.180;2024-03-25T12:35:10;6.13;;;3.63;;
70455;SDS011;57916;51.996;5.180;2024-03-25T12:37:38;5.75;;;3.55;;
70455;SDS011;57916;51.996;5.180;2024-03-25T12:40:06;6.53;;;3.33;;
70455;SDS011;57916;51.996;5.180;2024-03-25T12:42:34;5.90;;;3.22;;
70455;SDS011;57916;51.996;5.180;2024-03-25T12:45:00;6.65;;;3.30;;
70455;SDS011;57916;51.996;5.180;2024-03-25T12:47:26;6.93;;;3.25;;
70455;SDS011;57916;51.996;5.180;2024-03-25T12:49:53;4.38;;;3.20;;
70455;SDS011;57916;51.996;5.180;2024-03-25T12:52:19;5.15;;;3.03;;
70455;SDS011;57916;51.996;5.180;2024-03-25T12:54:45;4.93;;;2.92;;
70455;SDS011;57916;51.996;5.180;2024-03-25T12:57:11;6.60;;;2.90;;
70455;SDS011;57916;51.996;5.180;2024-03-25T12:59:37;6.13;;;2.97;;
70455;SDS011;57916;51.996;5.180;2024-03-25T13:02:03;9.43;;;3.13;;
70455;SDS011;57916;51.996;5.180;2024-03-25T13:04:30;7.47;;;2.70;;
70455;SDS011;57916;51.996;5.180;2024-03-25T13:06:56;5.70;;;2.97;;
70455;SDS011;57916;51.996;5.180;2024-03-25T13:09:22;9.73;;;3.50;;
70455;SDS011;57916;51.996;5.180;2024-03-25T13:11:48;5.47;;;3.00;;
70455;SDS011;57916;51.996;5.180;2024-03-25T13:14:14;5.75;;;2.88;;
70455;SDS011;57916;51.996;5.180;2024-03-25T13:16:41;5.82;;;3.22;;
70455;SDS011;57916;51.996;5.180;2024-03-25T13:19:07;5.32;;;3.03;;
70455;SDS011;57916;51.996;5.180;2024-03-25T13:21:33;8.30;;;2.90;;
70455;SDS011;57916;51.996;5.180;2024-03-25T13:23:59;6.38;;;3.17;;
70455;SDS011;57916;51.996;5.180;2024-03-25T13:26:26;5.17;;;2.87;;
70455;SDS011;57916;51.996;5.180;2024-03-25T13:28:53;5.28;;;2.83;;
70455;SDS011;57916;51.996;5.180;2024-03-25T13:31:19;7.22;;;3.33;;
70455;SDS011;57916;51.996;5.180;2024-03-25T13:33:45;6.70;;;2.90;;
70455;SDS011;57916;51.996;5.180;2024-03-25T13:36:11;7.63;;;3.65;;
70455;SDS011;57916;51.996;5.180;2024-03-25T13:38:40;6.32;;;3.25;;
70455;SDS011;57916;51.996;5.180;2024-03-25T13:41:06;8.68;;;3.40;;
70455;SDS011;57916;51.996;5.180;2024-03-25T13:43:32;7.05;;;3.47;;
70455;SDS011;57916;51.996;5.180;2024-03-25T13:45:58;7.05;;;3.17;;
70455;SDS011;57916;51.996;5.180;2024-03-25T13:48:24;8.13;;;3.35;;
70455;SDS011;57916;51.996;5.180;2024-03-25T13:50:53;5.95;;;3.13;;
70455;SDS011;57916;51.996;5.180;2024-03-25T13:53:20;4.97;;;2.90;;
70455;SDS011;57916;51.996;5.180;2024-03-25T13:55:46;7.13;;;3.33;;
70455;SDS011;57916;51.996;5.180;2024-03-25T13:58:12;10.90;;;3.33;;
70455;SDS011;57916;51.996;5.180;2024-03-25T14:00:38;7.05;;;3.25;;
70455;SDS011;57916;51.996;5.180;2024-03-25T14:03:05;3.10;;;2.63;;
70455;SDS011;57916;51.996;5.180;2024-03-25T14:05:31;9.20;;;3.20;;
70455;SDS011;57916;51.996;5.180;2024-03-25T14:07:57;5.80;;;3.33;;
70455;SDS011;57916;51.996;5.180;2024-03-25T14:10:23;8.48;;;3.22;;
70455;SDS011;57916;51.996;5.180;2024-03-25T14:12:49;4.93;;;2.70;;
70455;SDS011;57916;51.996;5.180;2024-03-25T14:15:15;9.45;;;2.80;;
70455;SDS011;57916;51.996;5.180;2024-03-25T14:17:41;4.97;;;2.03;;
70455;SDS011;57916;51.996;5.180;2024-03-25T14:20:07;4.80;;;2.50;;
70455;SDS011;57916;51.996;5.180;2024-03-25T14:22:34;6.65;;;3.17;;
70455;SDS011;57916;51.996;5.180;2024-03-25T14:25:00;5.22;;;2.17;;
70455;SDS011;57916;51.996;5.180;2024-03-25T14:27:26;4.07;;;2.22;;
70455;SDS011;57916;51.996;5.180;2024-03-25T14:29:52;9.95;;;3.30;;
70455;SDS011;57916;51.996;5.180;2024-03-25T14:32:19;6.13;;;3.25;;
70455;SDS011;57916;51.996;5.180;2024-03-25T14:34:46;5.60;;;3.38;;
70455;SDS011;57916;51.996;5.180;2024-03-25T14:37:13;4.70;;;2.80;;